Time;durP1;ratioP1;P1;durP2;ratioP2;P2;SDS_P1;SDS_P2;PMS_P1;PMS_P2;Temp;Humidity;BMP_temperature;BMP_pressure;BME280_temperature;BME280_humidity;BME280_pressure;Samples;Min_cycle;Max_cycle;Signal;HPM_P1;HPM_P2
2023/07/03 00:00:29;;;;;;;30.27;13.73;;;15.40;45.80;;;;;;4997695;28;46583;-81
2023/07/03 00:02:55;;;;;;;26.90;15.27;;;15.40;45.50;;;;;;5000946;28;46704;-80
2023/07/03 00:05:22;;;;;;;32.20;14.80;;;15.40;45.50;;;;;;4995225;28;46186;-77
2023/07/03 00:07:47;;;;;;;28.70;15.23;;;15.30;45.40;;;;;;4997504;28;45985;-75
2023/07/03 00:10:14;;;;;;;27.33;14.00;;;15.30;45.30;;;;;;4982195;28;46397;-76
2023/07/03 00:12:40;;;;;;;28.77;14.90;;;15.30;45.20;;;;;;4997983;28;46361;-76
2023/07/03 00:15:06;;;;;;;26.87;13.50;;;15.30;46.10;;;;;;4979707;28;48293;-79
2023/07/03 00:17:31;;;;;;;33.50;15.93;;;15.40;44.60;;;;;;4997609;28;46365;-79
2023/07/03 00:19:57;;;;;;;27.97;13.20;;;15.50;44.00;;;;;;4999435;28;46513;-78
2023/07/03 00:22:23;;;;;;;31.00;14.40;;;15.50;43.50;;;;;;4998428;28;46588;-78
2023/07/03 00:24:48;;;;;;;26.13;13.87;;;15.60;43.60;;;;;;4996472;28;47108;-79
2023/07/03 00:27:14;;;;;;;33.07;14.87;;;15.70;43.60;;;;;;4999288;28;46409;-78
2023/07/03 00:29:39;;;;;;;29.43;14.43;;;15.70;43.20;;;;;;4998548;28;45919;-76
2023/07/03 00:32:06;;;;;;;25.83;14.03;;;15.70;42.90;;;;;;4999421;28;46608;-76
2023/07/03 00:34:32;;;;;;;28.80;14.20;;;15.90;42.40;;;;;;4994468;28;47073;-77
2023/07/03 00:36:58;;;;;;;26.60;13.50;;;16.10;42.00;;;;;;4981225;28;47284;-76
2023/07/03 00:39:23;;;;;;;26.50;14.10;;;16.20;41.80;;;;;;4997405;28;46471;-78
2023/07/03 00:41:49;;;;;;;28.03;14.10;;;16.10;41.50;;;;;;4999222;28;46316;-78
2023/07/03 00:44:18;;;;;;;29.77;14.77;;;16.20;41.20;;;;;;4979940;28;48255;-78
2023/07/03 00:46:47;;;;;;;27.97;13.67;;;16.20;40.80;;;;;;4997191;28;46495;-76
2023/07/03 00:49:13;;;;;;;25.53;14.30;;;16.40;40.70;;;;;;4997823;28;46560;-78
2023/07/03 00:51:45;;;;;;;25.30;13.90;;;16.40;40.30;;;;;;4996174;28;46563;-77
2023/07/03 00:54:11;;;;;;;30.50;13.43;;;16.60;40.30;;;;;;4997793;28;46664;-78
2023/07/03 00:56:36;;;;;;;27.23;13.87;;;16.50;40.30;;;;;;4997178;28;45920;-77
2023/07/03 00:59:03;;;;;;;28.37;14.90;;;16.30;40.50;;;;;;4996142;28;46559;-77
2023/07/03 01:01:34;;;;;;;25.90;14.20;;;16.10;41.10;;;;;;4997040;28;46557;-80
2023/07/03 01:04:08;;;;;;;26.93;14.60;;;16.00;41.40;;;;;;4996594;28;46482;-76
2023/07/03 01:06:47;;;;;;;26.33;14.10;;;15.80;41.80;;;;;;4998252;28;46292;-77
2023/07/03 01:09:16;;;;;;;30.40;14.53;;;15.80;42.10;;;;;;4980728;28;46642;-78
2023/07/03 01:11:43;;;;;;;30.47;14.33;;;15.80;42.00;;;;;;4995016;28;46707;-78
2023/07/03 01:14:12;;;;;;;24.43;13.40;;;16.70;42.70;;;;;;4995210;28;46041;-76
2023/07/03 01:16:38;;;;;;;29.23;14.13;;;15.80;41.90;;;;;;4993429;28;46456;-76
2023/07/03 01:19:10;;;;;;;30.90;15.33;;;15.80;42.00;;;;;;4999484;28;46610;-77
2023/07/03 01:22:10;;;;;;;26.90;13.93;;;15.70;41.90;;;;;;4979426;28;46532;-76
2023/07/03 01:24:41;;;;;;;25.07;13.70;;;15.60;42.10;;;;;;4978248;28;48307;-77
2023/07/03 01:27:10;;;;;;;32.00;13.17;;;15.50;41.90;;;;;;4997966;28;46552;-78
2023/07/03 01:29:39;;;;;;;24.90;13.97;;;15.50;42.00;;;;;;4998147;28;45845;-79
2023/07/03 01:32:07;;;;;;;30.20;14.80;;;15.50;42.00;;;;;;4997522;28;46725;-76
2023/07/03 01:34:33;;;;;;;27.70;14.37;;;15.50;41.80;;;;;;4995036;28;46482;-78
2023/07/03 01:37:01;;;;;;;28.70;14.17;;;15.50;41.60;;;;;;4980952;28;46709;-76
2023/07/03 01:39:27;;;;;;;27.47;14.50;;;15.50;42.50;;;;;;4999054;28;46415;-81
2023/07/03 01:41:54;;;;;;;25.33;14.00;;;15.60;41.10;;;;;;4994113;28;46503;-79
2023/07/03 01:44:20;;;;;;;25.83;13.93;;;15.60;40.90;;;;;;4979876;28;48054;-78
2023/07/03 01:46:45;;;;;;;28.17;14.50;;;15.60;40.60;;;;;;4998369;28;46692;-79
2023/07/03 01:49:15;;;;;;;29.07;12.57;;;15.70;40.70;;;;;;4996332;28;46481;-78
2023/07/03 01:51:58;;;;;;;32.70;13.63;;;15.70;40.60;;;;;;4994964;28;46402;-78
2023/07/03 01:55:03;;;;;;;24.97;13.43;;;15.80;40.60;;;;;;4997422;28;46605;-78
2023/07/03 01:57:29;;;;;;;27.53;13.30;;;15.70;40.80;;;;;;4935115;28;46490;-77
2023/07/03 01:59:56;;;;;;;33.07;14.97;;;15.60;40.50;;;;;;4981021;28;47033;-79
2023/07/03 02:02:28;;;;;;;29.13;14.10;;;15.70;40.60;;;;;;4999485;28;46440;-80
2023/07/03 02:05:07;;;;;;;28.43;13.50;;;15.60;40.40;;;;;;4999902;28;46674;-80
2023/07/03 02:07:35;;;;;;;25.87;13.03;;;15.60;40.60;;;;;;4994389;28;46439;-78
2023/07/03 02:10:02;;;;;;;25.13;13.53;;;15.60;40.70;;;;;;4998400;28;46396;-79
2023/07/03 02:12:28;;;;;;;28.20;15.17;;;15.60;40.60;;;;;;4999771;28;46547;-78
2023/07/03 02:14:55;;;;;;;25.93;13.60;;;15.60;40.50;;;;;;5000497;28;46537;-78
2023/07/03 02:17:20;;;;;;;26.90;13.87;;;15.70;40.60;;;;;;4993922;28;46451;-79
2023/07/03 02:19:46;;;;;;;29.00;14.20;;;15.60;40.50;;;;;;4998541;28;46857;-77
2023/07/03 02:22:11;;;;;;;28.70;14.20;;;15.60;40.80;;;;;;4997563;28;46559;-76
2023/07/03 02:24:37;;;;;;;24.57;13.07;;;15.50;41.00;;;;;;4994789;28;46640;-78
2023/07/03 02:27:03;;;;;;;26.30;13.77;;;15.40;41.20;;;;;;4996869;28;46559;-77
2023/07/03 02:29:28;;;;;;;25.93;13.40;;;15.40;41.60;;;;;;4996473;28;45821;-76
2023/07/03 02:31:54;;;;;;;27.50;14.43;;;15.30;41.80;;;;;;4984765;28;46481;-77
2023/07/03 02:34:21;;;;;;;29.20;13.27;;;15.40;42.20;;;;;;4984121;28;48151;-77
2023/07/03 02:36:47;;;;;;;26.30;13.03;;;15.10;42.30;;;;;;4996937;28;46527;-77
2023/07/03 02:39:13;;;;;;;31.53;14.50;;;15.10;42.80;;;;;;4982735;28;46560;-76
2023/07/03 02:41:38;;;;;;;27.57;14.67;;;15.00;43.00;;;;;;5001065;28;46489;-77
2023/07/03 02:44:04;;;;;;;25.90;13.93;;;15.00;43.10;;;;;;5000410;28;46423;-78
2023/07/03 02:46:30;;;;;;;30.97;16.80;;;14.90;43.00;;;;;;4979882;28;46649;-77
2023/07/03 02:48:55;;;;;;;28.70;14.40;;;14.90;42.90;;;;;;4999845;28;46502;-77
2023/07/03 02:51:21;;;;;;;24.13;13.73;;;15.00;43.10;;;;;;4984619;28;46489;-77
2023/07/03 02:53:46;;;;;;;27.90;14.10;;;14.80;42.80;;;;;;4982654;28;48502;-79
2023/07/03 02:56:12;;;;;;;27.97;14.60;;;14.90;42.90;;;;;;4997686;28;46428;-76
2023/07/03 02:58:37;;;;;;;33.60;13.80;;;14.80;42.80;;;;;;4998887;28;46761;-79
2023/07/03 03:01:03;;;;;;;29.83;14.80;;;14.90;42.90;;;;;;4984226;28;46369;-76
2023/07/03 03:03:30;;;;;;;28.53;13.90;;;15.00;43.00;;;;;;5000586;28;46351;-78
2023/07/03 03:05:58;;;;;;;26.10;13.13;;;15.10;42.20;;;;;;4998771;28;47017;-78
2023/07/03 03:08:24;;;;;;;27.57;14.23;;;15.30;41.80;;;;;;4982738;28;46491;-76
2023/07/03 03:10:51;;;;;;;31.87;15.07;;;15.40;41.40;;;;;;5000955;28;46717;-77
2023/07/03 03:13:17;;;;;;;28.37;14.53;;;15.40;41.20;;;;;;4980476;28;49426;-78
2023/07/03 03:15:43;;;;;;;36.13;14.63;;;15.50;41.20;;;;;;5001749;28;46487;-77
2023/07/03 03:18:09;;;;;;;30.50;15.03;;;15.60;41.20;;;;;;4999750;28;46448;-76
2023/07/03 03:20:35;;;;;;;28.93;15.00;;;15.70;41.10;;;;;;4995923;28;46692;-78
2023/07/03 03:23:00;;;;;;;27.60;15.87;;;15.70;41.00;;;;;;4982830;28;49040;-77
2023/07/03 03:25:26;;;;;;;29.13;13.80;;;15.70;40.80;;;;;;5001094;28;46516;-76
2023/07/03 03:27:51;;;;;;;31.40;14.60;;;15.90;41.00;;;;;;4999249;28;46393;-77
2023/07/03 03:30:17;;;;;;;33.87;14.60;;;15.80;41.10;;;;;;4998920;28;46554;-77
2023/07/03 03:32:43;;;;;;;22.40;13.03;;;15.70;41.30;;;;;;4997371;28;46897;-77
2023/07/03 03:35:09;;;;;;;34.37;15.33;;;15.70;41.50;;;;;;4993235;28;46285;-78
2023/07/03 03:37:35;;;;;;;28.80;15.30;;;15.70;41.60;;;;;;4998711;28;46666;-76
2023/07/03 03:40:00;;;;;;;38.30;15.73;;;15.60;41.70;;;;;;4981759;28;46998;-76
2023/07/03 03:42:26;;;;;;;24.90;14.57;;;15.70;41.90;;;;;;4999145;28;46411;-76
2023/07/03 03:44:51;;;;;;;29.60;13.93;;;15.70;41.80;;;;;;4997085;28;46486;-76
2023/07/03 03:47:19;;;;;;;32.87;15.17;;;15.70;41.80;;;;;;4998970;28;46787;-76
2023/07/03 03:49:45;;;;;;;29.27;13.90;;;15.70;41.90;;;;;;5000937;28;46781;-78
2023/07/03 03:52:10;;;;;;;21.80;12.33;;;15.70;42.10;;;;;;4997888;28;46503;-77
2023/07/03 03:54:36;;;;;;;26.10;14.50;;;15.70;42.20;;;;;;4998894;28;46483;-78
2023/07/03 03:57:01;;;;;;;26.90;14.07;;;15.90;42.30;;;;;;5003462;28;46468;-79
2023/07/03 03:59:27;;;;;;;28.87;14.80;;;15.90;42.20;;;;;;5001239;28;47675;-79
2023/07/03 04:01:52;;;;;;;29.20;13.90;;;16.00;42.10;;;;;;5000096;28;47011;-79
2023/07/03 04:04:18;;;;;;;30.03;14.73;;;16.10;42.00;;;;;;5003027;28;46637;-76
2023/07/03 04:06:43;;;;;;;27.80;14.13;;;16.10;42.00;;;;;;5000202;28;46413;-80
2023/07/03 04:09:09;;;;;;;33.33;14.87;;;16.20;42.00;;;;;;5000716;28;46988;-76
2023/07/03 04:11:35;;;;;;;24.33;13.40;;;16.30;41.80;;;;;;4997760;28;46641;-79
2023/07/03 04:14:01;;;;;;;27.70;13.90;;;16.40;41.60;;;;;;5002509;28;46596;-78
2023/07/03 04:16:29;;;;;;;27.80;14.00;;;16.50;41.60;;;;;;4999815;28;47524;-77
2023/07/03 04:18:55;;;;;;;39.77;18.13;;;16.60;41.60;;;;;;4972384;28;46410;-75
2023/07/03 04:21:21;;;;;;;37.53;17.23;;;16.70;41.60;;;;;;4998126;28;47043;-79
2023/07/03 04:23:47;;;;;;;30.13;16.40;;;16.70;41.60;;;;;;4996818;28;46353;-77
2023/07/03 04:26:13;;;;;;;28.87;14.87;;;16.80;41.80;;;;;;4976531;28;46532;-78
2023/07/03 04:28:38;;;;;;;26.93;14.40;;;16.80;41.80;;;;;;4999621;28;46686;-79
2023/07/03 04:31:04;;;;;;;30.47;15.90;;;16.90;41.80;;;;;;4976090;28;48071;-77
2023/07/03 04:33:29;;;;;;;32.33;14.77;;;16.90;41.70;;;;;;4997784;28;46640;-78
2023/07/03 04:35:55;;;;;;;31.60;15.90;;;17.00;41.70;;;;;;4997045;28;47099;-77
2023/07/03 04:38:23;;;;;;;30.37;16.27;;;17.20;41.60;;;;;;4998602;28;46429;-78
2023/07/03 04:40:51;;;;;;;29.63;13.60;;;17.30;41.40;;;;;;4998925;28;46749;-79
2023/07/03 04:43:17;;;;;;;34.33;15.20;;;17.50;41.00;;;;;;4997250;28;45901;-77
2023/07/03 04:45:51;;;;;;;30.93;14.50;;;17.60;40.60;;;;;;4981573;28;46511;-77
2023/07/03 04:48:17;;;;;;;34.33;16.40;;;17.70;40.30;;;;;;4999175;28;46912;-80
2023/07/03 04:50:46;;;;;;;34.80;15.57;;;17.90;39.90;;;;;;4995867;28;47354;-76
2023/07/03 04:53:11;;;;;;;34.40;15.63;;;18.10;39.30;;;;;;4980096;28;46736;-78
2023/07/03 04:55:38;;;;;;;31.20;15.33;;;18.60;38.60;;;;;;4981376;28;45802;-80
2023/07/03 04:58:04;;;;;;;28.50;15.37;;;19.70;35.10;;;;;;4996557;28;46887;-78
2023/07/03 05:00:30;;;;;;;33.20;15.07;;;19.70;36.10;;;;;;4995075;28;46784;-79
2023/07/03 05:02:58;;;;;;;28.63;14.27;;;19.80;35.50;;;;;;4998197;28;46789;-76
2023/07/03 05:05:24;;;;;;;30.63;15.67;;;19.70;35.00;;;;;;4998075;28;45947;-79
2023/07/03 05:07:50;;;;;;;35.83;15.70;;;19.80;34.90;;;;;;4997449;28;46912;-76
2023/07/03 05:10:17;;;;;;;23.00;14.53;;;20.60;34.50;;;;;;4998121;28;47235;-77
2023/07/03 05:12:44;;;;;;;36.67;17.07;;;21.10;32.30;;;;;;4981595;28;46509;-76
2023/07/03 05:15:11;;;;;;;26.00;14.80;;;22.20;30.30;;;;;;4997767;28;46552;-77
2023/07/03 05:17:38;;;;;;;30.83;15.10;;;23.60;27.40;;;;;;4996939;28;46589;-77
2023/07/03 05:20:12;;;;;;;30.17;15.03;;;24.60;25.10;;;;;;4995234;28;46726;-78
2023/07/03 05:22:39;;;;;;;26.13;14.33;;;25.70;22.40;;;;;;4999561;28;45905;-77
2023/07/03 05:25:07;;;;;;;34.87;14.80;;;26.50;20.20;;;;;;4982005;28;46468;-78
2023/07/03 05:27:33;;;;;;;26.90;14.23;;;25.90;20.00;;;;;;4978432;28;46483;-78
2023/07/03 05:29:59;;;;;;;30.67;15.03;;;25.20;20.30;;;;;;4995603;28;47230;-79
2023/07/03 05:32:25;;;;;;;25.60;14.10;;;24.90;20.80;;;;;;4974208;28;46510;-82
2023/07/03 05:34:51;;;;;;;24.93;14.00;;;24.60;21.20;;;;;;4980119;28;46401;-79
2023/07/03 05:37:17;;;;;;;24.73;14.27;;;24.50;21.40;;;;;;4982406;28;46359;-80
2023/07/03 05:39:46;;;;;;;24.93;14.50;;;25.20;20.20;;;;;;4995540;28;46772;-78
2023/07/03 05:42:11;;;;;;;26.80;14.67;;;26.40;17.60;;;;;;4996207;28;46766;-81
2023/07/03 05:44:37;;;;;;;29.10;14.97;;;27.50;15.70;;;;;;4996380;28;46551;-82
2023/07/03 05:47:03;;;;;;;27.77;13.53;;;27.20;14.80;;;;;;5000522;28;47286;-77
2023/07/03 05:49:29;;;;;;;23.47;13.90;;;26.80;15.80;;;;;;4975959;28;49053;-78
2023/07/03 05:51:54;;;;;;;25.03;13.63;;;26.30;16.20;;;;;;4998235;28;47225;-79
2023/07/03 05:54:21;;;;;;;23.30;13.13;;;26.10;16.50;;;;;;4979350;28;46651;-80
2023/07/03 05:57:04;;;;;;;24.53;11.87;;;25.90;16.60;;;;;;5000770;28;46482;-79
2023/07/03 05:59:29;;;;;;;23.83;13.67;;;25.20;16.40;;;;;;4993796;28;47173;-79
2023/07/03 06:01:56;;;;;;;27.23;12.60;;;24.50;17.90;;;;;;4997119;28;46719;-77
2023/07/03 06:04:22;;;;;;;25.10;12.73;;;24.10;18.20;;;;;;4997276;28;46515;-79
2023/07/03 06:06:51;;;;;;;28.83;14.40;;;23.70;18.70;;;;;;4995059;28;46874;-80
2023/07/03 06:09:16;;;;;;;26.30;13.30;;;23.20;18.50;;;;;;4976725;28;48238;-79
2023/07/03 06:11:42;;;;;;;25.57;13.13;;;22.90;18.80;;;;;;4995286;28;45887;-78
2023/07/03 06:14:17;;;;;;;24.27;12.10;;;22.60;18.40;;;;;;4978302;28;46477;-78
2023/07/03 06:16:44;;;;;;;22.17;12.67;;;22.30;18.60;;;;;;4976949;28;46408;-78
2023/07/03 06:19:10;;;;;;;29.47;12.40;;;22.20;18.80;;;;;;4993054;28;46873;-79
2023/07/03 06:21:36;;;;;;;21.70;12.50;;;22.20;18.70;;;;;;4996638;28;46536;-78
2023/07/03 06:24:02;;;;;;;22.10;12.40;;;22.20;18.40;;;;;;4979451;28;46452;-78
2023/07/03 06:26:31;;;;;;;21.20;12.23;;;22.30;18.40;;;;;;4974630;28;46492;-79
2023/07/03 06:28:56;;;;;;;28.70;12.87;;;22.30;18.20;;;;;;4992620;28;46507;-78
2023/07/03 06:31:22;;;;;;;21.57;11.73;;;22.70;18.10;;;;;;4997681;28;46483;-81
2023/07/03 06:33:48;;;;;;;27.80;12.70;;;22.60;17.90;;;;;;4978990;28;46656;-77
2023/07/03 06:36:20;;;;;;;28.27;13.87;;;22.80;17.80;;;;;;4973529;28;46901;-79
2023/07/03 06:38:57;;;;;;;23.23;11.87;;;23.20;17.30;;;;;;4995090;28;46408;-81
2023/07/03 06:41:26;;;;;;;28.23;13.77;;;23.30;17.00;;;;;;4993121;28;46565;-79
2023/07/03 06:43:52;;;;;;;29.10;13.57;;;23.30;17.00;;;;;;4994805;28;46732;-80
2023/07/03 06:46:18;;;;;;;27.10;11.73;;;23.40;16.90;;;;;;4998071;28;46586;-79
2023/07/03 06:48:43;;;;;;;29.37;13.57;;;23.40;16.40;;;;;;4998914;28;46514;-80
2023/07/03 06:51:11;;;;;;;24.13;13.17;;;23.30;16.40;;;;;;4981029;28;46595;-79
2023/07/03 06:53:37;;;;;;;28.50;13.07;;;23.70;16.10;;;;;;4999187;28;46388;-79
2023/07/03 06:56:04;;;;;;;28.57;13.53;;;23.80;15.90;;;;;;4998759;28;47110;-80
2023/07/03 06:58:31;;;;;;;22.43;12.93;;;24.00;16.60;;;;;;4998114;28;46361;-79
2023/07/03 07:00:57;;;;;;;27.63;12.10;;;24.30;15.20;;;;;;4997220;28;46821;-78
2023/07/03 07:03:23;;;;;;;25.50;12.40;;;24.40;14.70;;;;;;4996008;28;46680;-79
2023/07/03 07:05:51;;;;;;;26.33;12.93;;;24.50;14.50;;;;;;4993913;28;46572;-79
2023/07/03 07:08:17;;;;;;;24.00;11.37;;;24.60;14.60;;;;;;4994603;28;46945;-80
2023/07/03 07:10:43;;;;;;;26.23;13.10;;;24.60;14.60;;;;;;4996577;28;46688;-80
2023/07/03 07:13:10;;;;;;;22.40;11.20;;;24.50;14.50;;;;;;4996842;28;46448;-78
2023/07/03 07:15:36;;;;;;;24.20;11.83;;;24.40;15.40;;;;;;4997213;28;46732;-78
2023/07/03 07:18:02;;;;;;;27.83;13.30;;;24.20;14.30;;;;;;4998304;28;46649;-80
2023/07/03 07:20:28;;;;;;;20.13;11.23;;;23.80;14.60;;;;;;4997448;28;46490;-79
2023/07/03 07:22:53;;;;;;;21.90;11.23;;;23.70;14.60;;;;;;4999082;28;46547;-79
2023/07/03 07:25:19;;;;;;;27.17;11.57;;;23.70;14.60;;;;;;4982087;28;46521;-79
2023/07/03 07:27:44;;;;;;;24.40;11.03;;;23.60;14.70;;;;;;4998554;28;46727;-79
2023/07/03 07:30:11;;;;;;;21.77;10.50;;;23.50;14.50;;;;;;5000810;28;46802;-78
2023/07/03 07:32:36;;;;;;;21.67;10.57;;;23.40;14.50;;;;;;4998765;28;46661;-78
2023/07/03 07:35:02;;;;;;;20.73;10.40;;;23.50;14.00;;;;;;4997482;28;46397;-80
2023/07/03 07:37:28;;;;;;;25.03;10.20;;;23.50;13.80;;;;;;5001079;28;46404;-80
2023/07/03 07:39:53;;;;;;;23.93;9.87;;;23.40;13.80;;;;;;4997570;28;46480;-78
2023/07/03 07:42:19;;;;;;;17.30;8.63;;;23.50;13.80;;;;;;4998340;28;46880;-79
2023/07/03 07:44:48;;;;;;;30.93;9.67;;;24.00;14.10;;;;;;4993946;28;46586;-77
2023/07/03 07:47:13;;;;;;;16.67;9.70;;;24.20;13.40;;;;;;4998753;28;47342;-78
2023/07/03 07:49:41;;;;;;;24.73;9.83;;;24.20;13.50;;;;;;4998789;28;45844;-79
2023/07/03 07:52:07;;;;;;;21.03;9.87;;;24.10;13.60;;;;;;4999320;28;46608;-78
2023/07/03 07:54:33;;;;;;;18.70;9.80;;;24.00;13.90;;;;;;4981630;28;46174;-80
2023/07/03 07:56:59;;;;;;;19.33;9.53;;;24.00;13.40;;;;;;4982258;28;48328;-80
2023/07/03 07:59:24;;;;;;;18.37;9.63;;;24.00;13.50;;;;;;4998018;28;46682;-78
2023/07/03 08:01:50;;;;;;;19.63;9.13;;;24.00;13.40;;;;;;4988434;28;46935;-81
2023/07/03 08:04:15;;;;;;;18.97;9.13;;;24.00;13.30;;;;;;4996217;28;47636;-80
2023/07/03 08:06:41;;;;;;;19.03;9.50;;;24.00;13.20;;;;;;4981174;28;48358;-80
2023/07/03 08:09:06;;;;;;;17.27;8.40;;;24.20;13.00;;;;;;4997196;28;46604;-79
2023/07/03 08:11:32;;;;;;;16.90;8.67;;;24.40;12.70;;;;;;4998364;28;46495;-79
2023/07/03 08:13:57;;;;;;;20.17;8.67;;;24.40;12.70;;;;;;4993976;28;46581;-79
2023/07/03 08:16:23;;;;;;;24.60;7.50;;;24.20;12.70;;;;;;4997119;28;46440;-78
2023/07/03 08:18:48;;;;;;;20.07;8.20;;;24.00;12.90;;;;;;4997730;28;46507;-79
2023/07/03 08:21:14;;;;;;;18.40;7.87;;;23.90;13.10;;;;;;4980404;28;46532;-79
2023/07/03 08:23:39;;;;;;;14.47;8.23;;;23.70;13.50;;;;;;4996486;28;46667;-78
2023/07/03 08:26:05;;;;;;;16.47;7.60;;;24.00;13.40;;;;;;4979045;28;48958;-79
2023/07/03 08:28:31;;;;;;;19.17;8.13;;;24.10;13.10;;;;;;4994442;28;46420;-80
2023/07/03 08:31:00;;;;;;;17.17;7.93;;;24.20;13.00;;;;;;4972641;28;47056;-81
2023/07/03 08:33:26;;;;;;;21.30;7.13;;;24.10;12.90;;;;;;4997396;28;47190;-80
2023/07/03 08:35:51;;;;;;;20.77;7.60;;;24.10;12.60;;;;;;4983235;28;47658;-79
2023/07/03 08:38:17;;;;;;;15.50;7.03;;;24.00;12.90;;;;;;5001695;28;46483;-78
2023/07/03 08:40:43;;;;;;;18.53;6.80;;;24.10;12.90;;;;;;4996623;28;46640;-78
2023/07/03 08:43:13;;;;;;;14.57;6.90;;;23.80;12.30;;;;;;4979494;28;46465;-80
2023/07/03 08:45:44;;;;;;;15.60;8.30;;;23.50;12.30;;;;;;5000103;28;46597;-78
2023/07/03 08:48:31;;;;;;;15.20;6.90;;;23.30;12.90;;;;;;4998992;28;46424;-79
2023/07/03 08:50:59;;;;;;;14.60;6.77;;;23.20;13.00;;;;;;4970893;28;46405;-81
2023/07/03 08:53:40;;;;;;;16.60;6.80;;;23.10;13.60;;;;;;4999315;28;46624;-79
2023/07/03 08:56:19;;;;;;;12.60;5.90;;;23.30;12.90;;;;;;4997484;28;46694;-78
2023/07/03 08:58:45;;;;;;;10.70;5.93;;;23.60;12.20;;;;;;4994945;28;46542;-78
2023/07/03 09:01:29;;;;;;;15.30;7.27;;;23.90;11.90;;;;;;4997446;28;46515;-79
2023/07/03 09:04:24;;;;;;;13.87;6.97;;;24.10;11.50;;;;;;4998523;28;47009;-81
2023/07/03 09:07:03;;;;;;;16.33;6.30;;;23.90;11.30;;;;;;4976682;28;49302;-80
2023/07/03 09:09:36;;;;;;;14.60;6.83;;;24.20;10.80;;;;;;4995723;28;46464;-79
2023/07/03 09:12:19;;;;;;;14.20;6.70;;;24.40;10.60;;;;;;5000556;28;46515;-78
2023/07/03 09:15:00;;;;;;;12.40;6.40;;;24.60;10.00;;;;;;4978601;28;46874;-78
2023/07/03 09:17:27;;;;;;;11.23;6.60;;;24.40;9.80;;;;;;4977983;28;47559;-79
2023/07/03 09:19:55;;;;;;;18.43;7.00;;;24.40;10.10;;;;;;4995548;28;46732;-79
2023/07/03 09:22:27;;;;;;;13.13;6.97;;;24.40;10.40;;;;;;4999802;28;46416;-79
2023/07/03 09:24:55;;;;;;;14.20;6.70;;;24.00;10.50;;;;;;4997750;28;46496;-80
2023/07/03 09:27:24;;;;;;;17.67;7.27;;;23.80;10.70;;;;;;4977359;28;48156;-78
2023/07/03 09:29:50;;;;;;;17.13;6.70;;;24.20;10.60;;;;;;4993723;28;46447;-80
2023/07/03 09:32:30;;;;;;;13.17;6.40;;;24.30;10.30;;;;;;4979693;28;46743;-79
2023/07/03 09:35:05;;;;;;;22.07;7.70;;;24.10;9.70;;;;;;4995288;28;46968;-79
2023/07/03 09:37:31;;;;;;;14.53;6.97;;;23.90;10.30;;;;;;4993977;28;46416;-81
2023/07/03 09:39:57;;;;;;;16.23;6.97;;;24.30;10.10;;;;;;4995127;28;46119;-79
2023/07/03 09:42:25;;;;;;;14.50;6.57;;;24.60;9.60;;;;;;4997661;28;46662;-79
2023/07/03 09:44:51;;;;;;;17.43;6.40;;;24.60;8.80;;;;;;4982492;28;45988;-80
2023/07/03 09:47:21;;;;;;;17.00;6.30;;;24.60;8.80;;;;;;4992800;28;46499;-79
2023/07/03 09:49:48;;;;;;;12.70;5.50;;;24.80;8.70;;;;;;4974333;28;46859;-77
2023/07/03 09:52:14;;;;;;;20.07;6.30;;;24.60;8.60;;;;;;4997965;28;46601;-80
2023/07/03 09:54:45;;;;;;;15.00;6.13;;;24.30;8.70;;;;;;4995979;28;46729;-79
2023/07/03 09:57:25;;;;;;;16.30;7.43;;;24.20;9.00;;;;;;4974829;28;49035;-81
2023/07/03 09:59:53;;;;;;;10.77;6.03;;;24.70;9.30;;;;;;5000125;28;46435;-81
2023/07/03 10:02:22;;;;;;;13.80;6.30;;;25.00;8.30;;;;;;4995266;28;46752;-78
2023/07/03 10:04:48;;;;;;;13.10;6.27;;;25.40;7.80;;;;;;4995065;28;46753;-78
2023/07/03 10:07:16;;;;;;;17.40;6.43;;;25.50;7.20;;;;;;4978909;28;49336;-79
2023/07/03 10:09:43;;;;;;;14.83;6.30;;;25.20;7.70;;;;;;4995602;28;46481;-80
2023/07/03 10:12:34;;;;;;;15.10;6.07;;;25.20;7.50;;;;;;4978512;28;47178;-79
2023/07/03 10:15:06;;;;;;;15.43;6.27;;;25.20;7.30;;;;;;4995788;28;45868;-80
2023/07/03 10:17:45;;;;;;;12.67;6.40;;;25.40;7.10;;;;;;4995939;28;46649;-79
2023/07/03 10:20:21;;;;;;;16.50;5.90;;;25.70;6.70;;;;;;4996244;28;46471;-79
2023/07/03 10:22:49;;;;;;;12.67;6.27;;;26.10;6.20;;;;;;4996411;28;46947;-80
2023/07/03 10:25:20;;;;;;;11.60;6.33;;;25.60;6.80;;;;;;4988196;28;46596;-77
2023/07/03 10:27:47;;;;;;;11.47;6.00;;;25.90;6.70;;;;;;4996366;28;46606;-81
2023/07/03 10:30:15;;;;;;;16.33;6.50;;;26.10;6.40;;;;;;4998574;28;46377;-78
2023/07/03 10:32:46;;;;;;;12.43;6.97;;;25.80;5.70;;;;;;4996520;28;46392;-78
2023/07/03 10:35:23;;;;;;;16.57;7.03;;;25.20;7.30;;;;;;4979518;28;46393;-80
2023/07/03 10:38:02;;;;;;;17.50;7.07;;;24.90;7.40;;;;;;4997791;28;46668;-81
2023/07/03 10:40:47;;;;;;;14.60;6.83;;;24.40;7.70;;;;;;4982419;28;46498;-80
2023/07/03 10:43:14;;;;;;;15.80;6.80;;;24.50;8.00;;;;;;4995020;28;46718;-80
2023/07/03 10:45:41;;;;;;;15.53;6.77;;;24.60;8.30;;;;;;4997205;28;45974;-80
2023/07/03 10:48:26;;;;;;;17.40;6.70;;;24.70;8.40;;;;;;4997473;28;46404;-81
2023/07/03 10:51:13;;;;;;;14.23;6.73;;;24.60;8.30;;;;;;4998567;28;46696;-77
2023/07/03 10:53:53;;;;;;;17.37;7.63;;;24.40;8.90;;;;;;4998485;28;46539;-79
2023/07/03 10:56:43;;;;;;;14.47;7.17;;;24.40;9.50;;;;;;4976020;28;46481;-78
2023/07/03 10:59:28;;;;;;;15.10;6.57;;;24.30;9.70;;;;;;5000144;28;46440;-78
2023/07/03 11:02:16;;;;;;;18.10;6.70;;;23.80;9.60;;;;;;5000181;28;46413;-78
2023/07/03 11:04:51;;;;;;;15.80;6.43;;;23.70;10.90;;;;;;4999082;28;46539;-78
2023/07/03 11:07:25;;;;;;;15.60;7.43;;;23.60;10.00;;;;;;4996485;28;46552;-80
2023/07/03 11:09:54;;;;;;;15.87;7.03;;;23.70;10.10;;;;;;4999155;28;47263;-79
2023/07/03 11:12:58;;;;;;;15.53;7.20;;;23.70;9.90;;;;;;4998466;28;45900;-78
2023/07/03 11:15:27;;;;;;;14.90;6.80;;;23.70;10.50;;;;;;4902635;28;46564;-80
2023/07/03 11:18:25;;;;;;;12.77;6.30;;;23.90;10.10;;;;;;4904559;28;46243;-78
2023/07/03 11:21:05;;;;;;;14.90;6.60;;;24.00;9.40;;;;;;4972827;28;46475;-79
2023/07/03 11:24:12;;;;;;;20.03;6.77;;;24.00;8.80;;;;;;4996556;28;46501;-79
2023/07/03 11:26:40;;;;;;;19.27;6.90;;;24.30;9.20;;;;;;4952891;28;47124;-80
2023/07/03 11:29:08;;;;;;;13.20;6.03;;;24.40;8.60;;;;;;4974758;28;46539;-82
2023/07/03 11:31:34;;;;;;;14.37;6.07;;;24.50;8.40;;;;;;5000641;28;46659;-79
2023/07/03 11:34:02;;;;;;;17.80;6.50;;;24.90;8.20;;;;;;5000030;28;46682;-83
2023/07/03 11:36:54;;;;;;;14.73;6.47;;;25.00;8.00;;;;;;5000786;28;46732;-79
2023/07/03 11:39:24;;;;;;;15.70;5.90;;;25.80;6.90;;;;;;4979697;28;46667;-79
2023/07/03 11:42:01;;;;;;;19.90;6.57;;;25.80;6.60;;;;;;4997502;28;46780;-78
2023/07/03 11:44:27;;;;;;;18.73;6.60;;;25.50;6.70;;;;;;4995497;28;46949;-78
2023/07/03 11:46:56;;;;;;;11.00;5.97;;;25.80;6.70;;;;;;4980320;28;46705;-80
2023/07/03 11:49:29;;;;;;;12.97;6.20;;;26.00;6.30;;;;;;4982781;28;46854;-80
2023/07/03 11:52:00;;;;;;;19.83;6.37;;;26.30;6.30;;;;;;4993537;28;47417;-78
2023/07/03 11:54:29;;;;;;;13.83;6.33;;;26.30;5.80;;;;;;4997739;28;46491;-80
2023/07/03 11:57:10;;;;;;;15.67;6.60;;;26.10;5.80;;;;;;4994940;28;46503;-79
2023/07/03 11:59:38;;;;;;;19.60;6.50;;;25.80;6.20;;;;;;4981560;28;46355;-79
2023/07/03 12:02:18;;;;;;;11.73;5.83;;;25.40;7.00;;;;;;4997684;28;46495;-78
2023/07/03 12:04:47;;;;;;;20.00;6.70;;;25.50;6.70;;;;;;4980097;28;46998;-79
2023/07/03 12:07:20;;;;;;;12.53;6.77;;;25.40;7.10;;;;;;4995878;28;46487;-79
2023/07/03 12:09:47;;;;;;;17.90;7.47;;;25.70;6.50;;;;;;4999597;28;46415;-77
2023/07/03 12:12:20;;;;;;;16.70;7.30;;;26.00;6.30;;;;;;4999941;28;47441;-79
2023/07/03 12:15:05;;;;;;;16.07;7.03;;;26.20;5.80;;;;;;4995974;28;46748;-81
2023/07/03 12:17:35;;;;;;;13.97;6.37;;;26.50;5.60;;;;;;4998684;28;46576;-82
2023/07/03 12:20:20;;;;;;;15.40;6.60;;;26.60;5.40;;;;;;4995720;28;45898;-80
2023/07/03 12:22:48;;;;;;;13.13;6.10;;;26.60;5.50;;;;;;4994876;28;46490;-80
2023/07/03 12:25:23;;;;;;;11.60;6.47;;;26.60;5.40;;;;;;4998173;28;46371;-80
2023/07/03 12:27:50;;;;;;;15.43;6.27;;;26.70;4.90;;;;;;4995128;28;46449;-80
2023/07/03 12:30:30;;;;;;;15.87;6.17;;;26.90;4.90;;;;;;4998763;28;46101;-81
2023/07/03 12:32:57;;;;;;;11.17;5.70;;;26.90;5.30;;;;;;4997764;28;46512;-78
2023/07/03 12:35:26;;;;;;;13.37;6.03;;;27.20;4.60;;;;;;4984810;28;46490;-78
2023/07/03 12:37:58;;;;;;;15.77;6.47;;;27.10;4.60;;;;;;4998448;28;46567;-80
2023/07/03 12:40:25;;;;;;;11.50;5.97;;;26.70;4.40;;;;;;5000017;28;46930;-81
2023/07/03 12:42:53;;;;;;;15.80;6.40;;;26.40;4.90;;;;;;4996688;28;46699;-80